sensor_id;sensor_type;location;lat;lon;timestamp;temperature;humidity
51765;DHT22;37835;53.256;6.456;2023-02-11T00:01:36;5.40;99.90
51765;DHT22;37835;53.256;6.456;2023-02-11T00:04:04;5.10;99.90
51765;DHT22;37835;53.256;6.456;2023-02-11T00:06:31;5.50;99.90
51765;DHT22;37835;53.256;6.456;2023-02-11T00:08:57;5.50;99.90
51765;DHT22;37835;53.256;6.456;2023-02-11T00:11:25;5.60;99.90
51765;DHT22;37835;53.256;6.456;2023-02-11T00:13:56;5.60;99.90
51765;DHT22;37835;53.256;6.456;2023-02-11T00:16:22;5.60;99.90
51765;DHT22;37835;53.256;6.456;2023-02-11T00:18:48;5.60;99.90
51765;DHT22;37835;53.256;6.456;2023-02-11T00:21:23;5.60;99.90
51765;DHT22;37835;53.256;6.456;2023-02-11T00:23:49;5.70;99.90
51765;DHT22;37835;53.256;6.456;2023-02-11T00:26:20;5.60;99.90
51765;DHT22;37835;53.256;6.456;2023-02-11T00:28:47;5.60;99.90
51765;DHT22;37835;53.256;6.456;2023-02-11T00:31:14;5.60;99.90
51765;DHT22;37835;53.256;6.456;2023-02-11T00:33:40;5.60;99.90
51765;DHT22;37835;53.256;6.456;2023-02-11T00:36:07;5.60;99.90
51765;DHT22;37835;53.256;6.456;2023-02-11T00:38:33;5.70;99.90
51765;DHT22;37835;53.256;6.456;2023-02-11T00:40:59;5.70;99.90
51765;DHT22;37835;53.256;6.456;2023-02-11T00:43:25;5.70;99.90
51765;DHT22;37835;53.256;6.456;2023-02-11T00:45:54;5.70;99.90
51765;DHT22;37835;53.256;6.456;2023-02-11T00:48:19;5.70;99.90
51765;DHT22;37835;53.256;6.456;2023-02-11T00:50:45;5.70;99.90
51765;DHT22;37835;53.256;6.456;2023-02-11T00:53:11;5.70;99.90
51765;DHT22;37835;53.256;6.456;2023-02-11T00:55:36;5.70;99.90
51765;DHT22;37835;53.256;6.456;2023-02-11T00:58:02;5.00;99.90
51765;DHT22;37835;53.256;6.456;2023-02-11T01:00:27;4.70;99.90
51765;DHT22;37835;53.256;6.456;2023-02-11T01:02:53;5.70;99.90
51765;DHT22;37835;53.256;6.456;2023-02-11T01:05:20;4.60;99.90
51765;DHT22;37835;53.256;6.456;2023-02-11T01:07:46;5.80;99.90
51765;DHT22;37835;53.256;6.456;2023-02-11T01:10:11;5.80;99.90
51765;DHT22;37835;53.256;6.456;2023-02-11T01:12:37;5.70;99.90
51765;DHT22;37835;53.256;6.456;2023-02-11T01:15:05;5.80;99.90
51765;DHT22;37835;53.256;6.456;2023-02-11T01:17:32;5.80;99.90
51765;DHT22;37835;53.256;6.456;2023-02-11T01:19:57;5.80;99.90
51765;DHT22;37835;53.256;6.456;2023-02-11T01:22:23;5.80;99.90
51765;DHT22;37835;53.256;6.456;2023-02-11T01:24:48;6.40;99.90
51765;DHT22;37835;53.256;6.456;2023-02-11T01:27:14;5.80;99.90
51765;DHT22;37835;53.256;6.456;2023-02-11T01:29:39;5.80;99.90
51765;DHT22;37835;53.256;6.456;2023-02-11T01:32:05;5.80;99.90
51765;DHT22;37835;53.256;6.456;2023-02-11T01:34:30;5.80;99.90
51765;DHT22;37835;53.256;6.456;2023-02-11T01:36:57;6.50;99.90
51765;DHT22;37835;53.256;6.456;2023-02-11T01:39:24;5.80;99.90
51765;DHT22;37835;53.256;6.456;2023-02-11T01:41:50;5.80;99.90
51765;DHT22;37835;53.256;6.456;2023-02-11T01:44:31;5.80;99.90
51765;DHT22;37835;53.256;6.456;2023-02-11T01:46:57;5.80;99.90
51765;DHT22;37835;53.256;6.456;2023-02-11T01:49:30;5.80;99.90
51765;DHT22;37835;53.256;6.456;2023-02-11T01:52:09;5.80;99.90
51765;DHT22;37835;53.256;6.456;2023-02-11T01:54:41;5.80;99.90
51765;DHT22;37835;53.256;6.456;2023-02-11T01:57:30;5.90;99.90
51765;DHT22;37835;53.256;6.456;2023-02-11T02:02:48;5.20;99.90
51765;DHT22;37835;53.256;6.456;2023-02-11T02:05:32;5.80;99.90
51765;DHT22;37835;53.256;6.456;2023-02-11T02:08:06;5.90;99.90
51765;DHT22;37835;53.256;6.456;2023-02-11T02:10:34;5.80;99.90
51765;DHT22;37835;53.256;6.456;2023-02-11T02:13:02;5.90;99.90
51765;DHT22;37835;53.256;6.456;2023-02-11T02:15:35;6.00;99.90
51765;DHT22;37835;53.256;6.456;2023-02-11T02:32:37;5.90;99.90
51765;DHT22;37835;53.256;6.456;2023-02-11T02:37:50;7.80;99.90
51765;DHT22;37835;53.256;6.456;2023-02-11T02:40:48;5.90;99.90
51765;DHT22;37835;53.256;6.456;2023-02-11T02:43:16;5.90;99.90
51765;DHT22;37835;53.256;6.456;2023-02-11T02:45:42;5.90;99.90
51765;DHT22;37835;53.256;6.456;2023-02-11T02:48:23;5.90;99.90
51765;DHT22;37835;53.256;6.456;2023-02-11T02:50:55;5.90;99.90
51765;DHT22;37835;53.256;6.456;2023-02-11T02:53:36;5.90;99.90
51765;DHT22;37835;53.256;6.456;2023-02-11T02:56:11;5.90;99.90
51765;DHT22;37835;53.256;6.456;2023-02-11T03:01:46;5.80;99.90
51765;DHT22;37835;53.256;6.456;2023-02-11T03:06:57;5.90;99.90
51765;DHT22;37835;53.256;6.456;2023-02-11T03:12:02;5.90;99.90
51765;DHT22;37835;53.256;6.456;2023-02-11T03:14:29;6.00;99.90
51765;DHT22;37835;53.256;6.456;2023-02-11T03:16:57;6.00;99.90
51765;DHT22;37835;53.256;6.456;2023-02-11T03:19:35;5.70;99.90
51765;DHT22;37835;53.256;6.456;2023-02-11T03:22:06;6.00;99.90
51765;DHT22;37835;53.256;6.456;2023-02-11T03:24:36;6.10;99.90
51765;DHT22;37835;53.256;6.456;2023-02-11T03:27:14;6.10;99.90
51765;DHT22;37835;53.256;6.456;2023-02-11T03:29:55;6.10;99.90
51765;DHT22;37835;53.256;6.456;2023-02-11T03:32:37;6.10;99.90
51765;DHT22;37835;53.256;6.456;2023-02-11T03:35:16;5.80;99.90
51765;DHT22;37835;53.256;6.456;2023-02-11T03:38:13;4.80;99.90
51765;DHT22;37835;53.256;6.456;2023-02-11T03:40:42;6.20;99.90
51765;DHT22;37835;53.256;6.456;2023-02-11T03:43:31;6.20;99.90
51765;DHT22;37835;53.256;6.456;2023-02-11T03:45:58;6.20;99.90
51765;DHT22;37835;53.256;6.456;2023-02-11T03:48:28;6.30;99.90
51765;DHT22;37835;53.256;6.456;2023-02-11T03:50:55;6.30;99.90
51765;DHT22;37835;53.256;6.456;2023-02-11T03:53:22;7.90;99.90
51765;DHT22;37835;53.256;6.456;2023-02-11T03:55:49;6.30;99.90
51765;DHT22;37835;53.256;6.456;2023-02-11T03:58:15;6.30;99.90
51765;DHT22;37835;53.256;6.456;2023-02-11T04:00:42;6.30;99.90
51765;DHT22;37835;53.256;6.456;2023-02-11T04:03:09;6.40;99.90
51765;DHT22;37835;53.256;6.456;2023-02-11T04:05:36;5.90;99.90
51765;DHT22;37835;53.256;6.456;2023-02-11T04:08:02;6.00;99.90
51765;DHT22;37835;53.256;6.456;2023-02-11T04:10:28;6.40;99.90
51765;DHT22;37835;53.256;6.456;2023-02-11T04:12:54;6.40;99.90
51765;DHT22;37835;53.256;6.456;2023-02-11T04:15:19;5.40;99.90
51765;DHT22;37835;53.256;6.456;2023-02-11T04:17:45;6.40;99.90
51765;DHT22;37835;53.256;6.456;2023-02-11T04:20:11;6.50;99.90
51765;DHT22;37835;53.256;6.456;2023-02-11T04:22:37;6.50;99.90
51765;DHT22;37835;53.256;6.456;2023-02-11T04:25:04;6.50;99.90
51765;DHT22;37835;53.256;6.456;2023-02-11T04:27:30;6.50;99.90
51765;DHT22;37835;53.256;6.456;2023-02-11T04:29:56;6.50;99.90
51765;DHT22;37835;53.256;6.456;2023-02-11T04:32:21;6.60;99.90
51765;DHT22;37835;53.256;6.456;2023-02-11T04:34:47;6.50;99.90
51765;DHT22;37835;53.256;6.456;2023-02-11T04:37:13;6.60;99.90
51765;DHT22;37835;53.256;6.456;2023-02-11T04:39:39;6.60;99.90
51765;DHT22;37835;53.256;6.456;2023-02-11T04:42:05;6.60;99.90
51765;DHT22;37835;53.256;6.456;2023-02-11T04:44:30;6.70;99.90
51765;DHT22;37835;53.256;6.456;2023-02-11T04:46:56;6.70;99.90
51765;DHT22;37835;53.256;6.456;2023-02-11T04:49:21;6.20;99.90
51765;DHT22;37835;53.256;6.456;2023-02-11T04:51:47;6.60;99.90
51765;DHT22;37835;53.256;6.456;2023-02-11T04:54:13;6.70;99.90
51765;DHT22;37835;53.256;6.456;2023-02-11T04:56:38;6.70;99.90
51765;DHT22;37835;53.256;6.456;2023-02-11T04:59:04;6.70;99.90
51765;DHT22;37835;53.256;6.456;2023-02-11T05:01:30;7.80;99.90
51765;DHT22;37835;53.256;6.456;2023-02-11T05:03:56;6.80;99.90
51765;DHT22;37835;53.256;6.456;2023-02-11T05:06:22;6.80;99.90
51765;DHT22;37835;53.256;6.456;2023-02-11T05:08:47;6.90;99.90
51765;DHT22;37835;53.256;6.456;2023-02-11T05:11:19;6.90;99.90
51765;DHT22;37835;53.256;6.456;2023-02-11T05:13:45;6.90;99.90
51765;DHT22;37835;53.256;6.456;2023-02-11T05:16:12;6.90;99.90
51765;DHT22;37835;53.256;6.456;2023-02-11T05:18:38;6.90;99.90
51765;DHT22;37835;53.256;6.456;2023-02-11T05:21:08;7.00;99.90
51765;DHT22;37835;53.256;6.456;2023-02-11T05:23:34;7.00;99.90
51765;DHT22;37835;53.256;6.456;2023-02-11T05:26:00;7.00;99.90
51765;DHT22;37835;53.256;6.456;2023-02-11T05:28:26;7.00;99.90
51765;DHT22;37835;53.256;6.456;2023-02-11T05:30:52;7.00;99.90
51765;DHT22;37835;53.256;6.456;2023-02-11T05:33:18;7.30;99.90
51765;DHT22;37835;53.256;6.456;2023-02-11T05:35:43;6.90;99.90
51765;DHT22;37835;53.256;6.456;2023-02-11T05:38:09;6.90;99.90
51765;DHT22;37835;53.256;6.456;2023-02-11T05:40:35;6.90;99.90
51765;DHT22;37835;53.256;6.456;2023-02-11T05:43:00;6.90;99.90
51765;DHT22;37835;53.256;6.456;2023-02-11T05:45:26;5.80;99.90
51765;DHT22;37835;53.256;6.456;2023-02-11T05:47:51;6.90;99.90
51765;DHT22;37835;53.256;6.456;2023-02-11T05:50:17;6.90;99.90
51765;DHT22;37835;53.256;6.456;2023-02-11T05:52:43;6.90;99.90
51765;DHT22;37835;53.256;6.456;2023-02-11T05:55:08;6.90;99.90
51765;DHT22;37835;53.256;6.456;2023-02-11T05:57:34;6.90;99.90
51765;DHT22;37835;53.256;6.456;2023-02-11T05:59:59;6.90;99.90
51765;DHT22;37835;53.256;6.456;2023-02-11T06:02:25;6.70;99.90
51765;DHT22;37835;53.256;6.456;2023-02-11T06:04:50;7.00;99.90
51765;DHT22;37835;53.256;6.456;2023-02-11T06:07:16;6.90;99.90
51765;DHT22;37835;53.256;6.456;2023-02-11T06:09:41;6.50;99.90
51765;DHT22;37835;53.256;6.456;2023-02-11T06:12:07;6.90;99.90
51765;DHT22;37835;53.256;6.456;2023-02-11T06:14:33;6.90;99.90
51765;DHT22;37835;53.256;6.456;2023-02-11T06:16:58;7.00;99.90
51765;DHT22;37835;53.256;6.456;2023-02-11T06:19:24;7.00;99.90
51765;DHT22;37835;53.256;6.456;2023-02-11T06:21:50;7.00;99.90
51765;DHT22;37835;53.256;6.456;2023-02-11T06:24:15;7.00;99.90
51765;DHT22;37835;53.256;6.456;2023-02-11T06:26:41;7.00;99.90
51765;DHT22;37835;53.256;6.456;2023-02-11T06:29:07;7.90;99.90
51765;DHT22;37835;53.256;6.456;2023-02-11T06:31:32;7.00;99.90
51765;DHT22;37835;53.256;6.456;2023-02-11T06:33:58;7.00;99.90
51765;DHT22;37835;53.256;6.456;2023-02-11T06:36:24;7.00;99.90
51765;DHT22;37835;53.256;6.456;2023-02-11T06:38:49;6.10;99.90
51765;DHT22;37835;53.256;6.456;2023-02-11T06:41:17;7.00;99.90
51765;DHT22;37835;53.256;6.456;2023-02-11T06:43:44;7.00;99.90
51765;DHT22;37835;53.256;6.456;2023-02-11T06:46:10;7.20;99.90
51765;DHT22;37835;53.256;6.456;2023-02-11T06:48:36;7.00;99.90
51765;DHT22;37835;53.256;6.456;2023-02-11T06:51:07;7.00;99.90
51765;DHT22;37835;53.256;6.456;2023-02-11T06:53:35;7.00;99.90
51765;DHT22;37835;53.256;6.456;2023-02-11T06:56:06;7.00;99.90
51765;DHT22;37835;53.256;6.456;2023-02-11T06:58:31;7.00;99.90
51765;DHT22;37835;53.256;6.456;2023-02-11T07:00:57;6.90;99.90
51765;DHT22;37835;53.256;6.456;2023-02-11T07:03:23;7.00;99.90
51765;DHT22;37835;53.256;6.456;2023-02-11T07:05:48;7.00;99.90
51765;DHT22;37835;53.256;6.456;2023-02-11T07:08:14;7.10;99.90
51765;DHT22;37835;53.256;6.456;2023-02-11T07:10:40;7.10;99.90
51765;DHT22;37835;53.256;6.456;2023-02-11T07:13:05;7.10;99.90
51765;DHT22;37835;53.256;6.456;2023-02-11T07:15:31;7.10;99.90
51765;DHT22;37835;53.256;6.456;2023-02-11T07:17:57;7.10;99.90
51765;DHT22;37835;53.256;6.456;2023-02-11T07:20:22;7.10;99.90
51765;DHT22;37835;53.256;6.456;2023-02-11T07:22:48;7.10;99.90
51765;DHT22;37835;53.256;6.456;2023-02-11T07:25:14;7.10;99.90
51765;DHT22;37835;53.256;6.456;2023-02-11T07:27:40;7.10;99.90
51765;DHT22;37835;53.256;6.456;2023-02-11T07:30:06;7.10;99.90
51765;DHT22;37835;53.256;6.456;2023-02-11T07:32:31;7.20;99.90
51765;DHT22;37835;53.256;6.456;2023-02-11T07:34:57;7.20;99.90
51765;DHT22;37835;53.256;6.456;2023-02-11T07:37:23;7.20;99.90
51765;DHT22;37835;53.256;6.456;2023-02-11T07:39:48;7.20;99.90
51765;DHT22;37835;53.256;6.456;2023-02-11T07:42:14;7.20;99.90
51765;DHT22;37835;53.256;6.456;2023-02-11T07:44:39;7.20;99.90
51765;DHT22;37835;53.256;6.456;2023-02-11T07:47:05;7.10;99.90
51765;DHT22;37835;53.256;6.456;2023-02-11T07:49:31;7.20;99.90
51765;DHT22;37835;53.256;6.456;2023-02-11T07:51:56;7.20;99.90
51765;DHT22;37835;53.256;6.456;2023-02-11T07:54:22;7.20;99.90
51765;DHT22;37835;53.256;6.456;2023-02-11T07:56:47;7.30;99.90
51765;DHT22;37835;53.256;6.456;2023-02-11T07:59:13;7.30;99.90
51765;DHT22;37835;53.256;6.456;2023-02-11T08:01:38;7.30;99.90
51765;DHT22;37835;53.256;6.456;2023-02-11T08:04:04;7.30;99.90
51765;DHT22;37835;53.256;6.456;2023-02-11T08:06:31;7.30;99.90
51765;DHT22;37835;53.256;6.456;2023-02-11T08:08:57;7.30;99.90
51765;DHT22;37835;53.256;6.456;2023-02-11T08:11:27;7.40;99.90
51765;DHT22;37835;53.256;6.456;2023-02-11T08:13:55;7.30;99.90
51765;DHT22;37835;53.256;6.456;2023-02-11T08:18:47;7.40;99.90
51765;DHT22;37835;53.256;6.456;2023-02-11T08:21:13;7.40;99.90
51765;DHT22;37835;53.256;6.456;2023-02-11T08:23:40;7.40;99.90
51765;DHT22;37835;53.256;6.456;2023-02-11T08:26:11;7.40;99.90
51765;DHT22;37835;53.256;6.456;2023-02-11T08:28:40;7.40;99.90
51765;DHT22;37835;53.256;6.456;2023-02-11T08:31:07;7.50;99.90
51765;DHT22;37835;53.256;6.456;2023-02-11T08:33:34;7.50;99.90
51765;DHT22;37835;53.256;6.456;2023-02-11T08:36:00;7.50;99.90
51765;DHT22;37835;53.256;6.456;2023-02-11T08:38:26;7.50;99.90
51765;DHT22;37835;53.256;6.456;2023-02-11T08:40:51;7.60;99.90
51765;DHT22;37835;53.256;6.456;2023-02-11T08:43:17;7.50;99.90
51765;DHT22;37835;53.256;6.456;2023-02-11T08:45:43;7.60;99.90
51765;DHT22;37835;53.256;6.456;2023-02-11T08:48:09;7.50;99.90
51765;DHT22;37835;53.256;6.456;2023-02-11T08:50:37;8.00;99.90
51765;DHT22;37835;53.256;6.456;2023-02-11T08:53:03;7.60;99.90
51765;DHT22;37835;53.256;6.456;2023-02-11T08:55:29;7.60;99.90
51765;DHT22;37835;53.256;6.456;2023-02-11T08:57:54;7.60;99.90
51765;DHT22;37835;53.256;6.456;2023-02-11T09:00:21;7.60;99.90
51765;DHT22;37835;53.256;6.456;2023-02-11T09:02:47;7.70;99.90
51765;DHT22;37835;53.256;6.456;2023-02-11T09:05:12;7.60;99.90
51765;DHT22;37835;53.256;6.456;2023-02-11T09:07:38;7.70;99.90
51765;DHT22;37835;53.256;6.456;2023-02-11T09:10:04;7.70;99.90
51765;DHT22;37835;53.256;6.456;2023-02-11T09:12:31;7.80;99.90
51765;DHT22;37835;53.256;6.456;2023-02-11T09:14:56;7.80;99.90
51765;DHT22;37835;53.256;6.456;2023-02-11T09:17:22;7.80;99.90
51765;DHT22;37835;53.256;6.456;2023-02-11T09:19:47;7.80;99.90
51765;DHT22;37835;53.256;6.456;2023-02-11T09:22:13;7.90;99.90
51765;DHT22;37835;53.256;6.456;2023-02-11T09:24:38;7.90;99.90
51765;DHT22;37835;53.256;6.456;2023-02-11T09:27:05;7.90;99.90
51765;DHT22;37835;53.256;6.456;2023-02-11T09:29:30;8.00;99.90
51765;DHT22;37835;53.256;6.456;2023-02-11T09:31:56;8.00;99.90
51765;DHT22;37835;53.256;6.456;2023-02-11T09:34:21;8.00;99.90
51765;DHT22;37835;53.256;6.456;2023-02-11T09:36:47;8.10;99.90
51765;DHT22;37835;53.256;6.456;2023-02-11T09:39:17;8.10;99.90
51765;DHT22;37835;53.256;6.456;2023-02-11T09:44:27;8.20;99.90
51765;DHT22;37835;53.256;6.456;2023-02-11T09:46:56;8.20;99.90
51765;DHT22;37835;53.256;6.456;2023-02-11T09:52:26;8.30;99.90
51765;DHT22;37835;53.256;6.456;2023-02-11T09:54:59;7.00;99.90
51765;DHT22;37835;53.256;6.456;2023-02-11T09:57:32;8.40;99.90
51765;DHT22;37835;53.256;6.456;2023-02-11T10:00:00;8.50;99.90
51765;DHT22;37835;53.256;6.456;2023-02-11T10:02:40;8.50;99.90
51765;DHT22;37835;53.256;6.456;2023-02-11T10:05:30;8.60;99.90
51765;DHT22;37835;53.256;6.456;2023-02-11T10:08:19;8.60;99.90
51765;DHT22;37835;53.256;6.456;2023-02-11T10:10:55;8.60;99.90
51765;DHT22;37835;53.256;6.456;2023-02-11T10:13:53;8.60;99.90
51765;DHT22;37835;53.256;6.456;2023-02-11T10:16:38;8.60;99.90
51765;DHT22;37835;53.256;6.456;2023-02-11T10:22:26;8.60;99.90
51765;DHT22;37835;53.256;6.456;2023-02-11T10:24:54;8.70;99.90
51765;DHT22;37835;53.256;6.456;2023-02-11T10:27:27;8.70;99.90
51765;DHT22;37835;53.256;6.456;2023-02-11T10:30:06;8.70;99.90
51765;DHT22;37835;53.256;6.456;2023-02-11T10:32:59;8.80;99.90
51765;DHT22;37835;53.256;6.456;2023-02-11T10:35:27;7.70;99.90
51765;DHT22;37835;53.256;6.456;2023-02-11T10:37:54;9.10;99.90
51765;DHT22;37835;53.256;6.456;2023-02-11T10:40:25;8.90;99.90
51765;DHT22;37835;53.256;6.456;2023-02-11T10:42:59;8.90;99.90
51765;DHT22;37835;53.256;6.456;2023-02-11T10:45:33;8.90;99.90
51765;DHT22;37835;53.256;6.456;2023-02-11T10:48:03;9.00;99.90
51765;DHT22;37835;53.256;6.456;2023-02-11T10:50:32;9.00;99.90
51765;DHT22;37835;53.256;6.456;2023-02-11T10:53:14;9.10;99.90
51765;DHT22;37835;53.256;6.456;2023-02-11T10:55:54;9.10;99.90
51765;DHT22;37835;53.256;6.456;2023-02-11T10:58:44;9.10;99.90
51765;DHT22;37835;53.256;6.456;2023-02-11T11:01:10;9.10;99.90
51765;DHT22;37835;53.256;6.456;2023-02-11T11:03:48;9.10;99.90
51765;DHT22;37835;53.256;6.456;2023-02-11T11:06:15;9.10;99.90
51765;DHT22;37835;53.256;6.456;2023-02-11T11:08:49;9.20;99.90
51765;DHT22;37835;53.256;6.456;2023-02-11T11:11:20;8.80;99.90
51765;DHT22;37835;53.256;6.456;2023-02-11T11:16:31;9.20;99.90
51765;DHT22;37835;53.256;6.456;2023-02-11T11:21:49;9.20;99.90
51765;DHT22;37835;53.256;6.456;2023-02-11T11:24:16;9.10;99.90
51765;DHT22;37835;53.256;6.456;2023-02-11T11:26:53;9.10;99.90
51765;DHT22;37835;53.256;6.456;2023-02-11T11:29:33;9.20;99.90
51765;DHT22;37835;53.256;6.456;2023-02-11T11:34:42;9.20;99.90
51765;DHT22;37835;53.256;6.456;2023-02-11T11:37:34;9.20;99.90
51765;DHT22;37835;53.256;6.456;2023-02-11T11:42:40;9.30;99.90
51765;DHT22;37835;53.256;6.456;2023-02-11T11:50:34;9.30;99.90
51765;DHT22;37835;53.256;6.456;2023-02-11T11:53:28;9.50;99.90
51765;DHT22;37835;53.256;6.456;2023-02-11T11:56:15;9.40;99.90
51765;DHT22;37835;53.256;6.456;2023-02-11T11:58:41;9.90;99.90
51765;DHT22;37835;53.256;6.456;2023-02-11T12:15:21;9.70;99.90
51765;DHT22;37835;53.256;6.456;2023-02-11T12:17:59;9.60;99.90
51765;DHT22;37835;53.256;6.456;2023-02-11T12:26:19;9.80;99.90
51765;DHT22;37835;53.256;6.456;2023-02-11T12:29:13;9.80;99.90
51765;DHT22;37835;53.256;6.456;2023-02-11T12:32:09;9.90;99.90
51765;DHT22;37835;53.256;6.456;2023-02-11T12:37:46;9.80;99.90
51765;DHT22;37835;53.256;6.456;2023-02-11T12:43:23;9.90;99.90
51765;DHT22;37835;53.256;6.456;2023-02-11T12:45:59;9.90;99.90
51765;DHT22;37835;53.256;6.456;2023-02-11T12:51:21;10.00;99.90
51765;DHT22;37835;53.256;6.456;2023-02-11T12:56:54;10.10;99.90
51765;DHT22;37835;53.256;6.456;2023-02-11T13:04:59;9.70;99.90
51765;DHT22;37835;53.256;6.456;2023-02-11T13:07:40;10.00;99.90
51765;DHT22;37835;53.256;6.456;2023-02-11T13:12:47;9.90;99.90
51765;DHT22;37835;53.256;6.456;2023-02-11T13:15:32;9.90;99.90
51765;DHT22;37835;53.256;6.456;2023-02-11T13:20:57;9.80;99.90
51765;DHT22;37835;53.256;6.456;2023-02-11T13:23:36;9.70;99.90
51765;DHT22;37835;53.256;6.456;2023-02-11T13:26:18;9.60;99.90
51765;DHT22;37835;53.256;6.456;2023-02-11T13:28:56;9.60;99.90
51765;DHT22;37835;53.256;6.456;2023-02-11T13:31:25;9.50;99.90
51765;DHT22;37835;53.256;6.456;2023-02-11T13:33:52;9.50;99.90
51765;DHT22;37835;53.256;6.456;2023-02-11T13:36:28;8.50;99.90
51765;DHT22;37835;53.256;6.456;2023-02-11T13:39:03;9.40;99.90
51765;DHT22;37835;53.256;6.456;2023-02-11T13:41:33;9.40;99.90
51765;DHT22;37835;53.256;6.456;2023-02-11T13:44:04;9.40;99.90
51765;DHT22;37835;53.256;6.456;2023-02-11T13:47:03;9.30;99.90
51765;DHT22;37835;53.256;6.456;2023-02-11T13:49:35;9.30;99.90
51765;DHT22;37835;53.256;6.456;2023-02-11T13:52:15;9.30;99.90
51765;DHT22;37835;53.256;6.456;2023-02-11T13:54:46;9.30;99.90
51765;DHT22;37835;53.256;6.456;2023-02-11T13:59:56;9.30;99.90
51765;DHT22;37835;53.256;6.456;2023-02-11T14:02:28;9.30;99.90
51765;DHT22;37835;53.256;6.456;2023-02-11T14:05:30;9.30;99.90
51765;DHT22;37835;53.256;6.456;2023-02-11T14:08:18;9.20;99.90
51765;DHT22;37835;53.256;6.456;2023-02-11T14:11:46;9.30;99.90
51765;DHT22;37835;53.256;6.456;2023-02-11T14:14:21;9.20;99.90
51765;DHT22;37835;53.256;6.456;2023-02-11T14:19:49;9.10;99.90
51765;DHT22;37835;53.256;6.456;2023-02-11T14:22:42;9.10;99.90
51765;DHT22;37835;53.256;6.456;2023-02-11T14:25:23;9.10;99.90
51765;DHT22;37835;53.256;6.456;2023-02-11T14:28:17;9.10;99.90
51765;DHT22;37835;53.256;6.456;2023-02-11T14:31:09;9.00;99.90
51765;DHT22;37835;53.256;6.456;2023-02-11T14:39:34;8.90;99.90
51765;DHT22;37835;53.256;6.456;2023-02-11T14:42:05;8.90;99.90
51765;DHT22;37835;53.256;6.456;2023-02-11T14:44:32;9.00;99.90
51765;DHT22;37835;53.256;6.456;2023-02-11T14:46:58;8.90;99.90
51765;DHT22;37835;53.256;6.456;2023-02-11T14:49:34;8.80;99.90
51765;DHT22;37835;53.256;6.456;2023-02-11T14:52:13;8.80;99.90
51765;DHT22;37835;53.256;6.456;2023-02-11T14:54:42;8.80;99.90
51765;DHT22;37835;53.256;6.456;2023-02-11T14:57:19;8.90;99.90
51765;DHT22;37835;53.256;6.456;2023-02-11T15:00:12;8.80;99.90
51765;DHT22;37835;53.256;6.456;2023-02-11T15:02:42;8.80;99.90
51765;DHT22;37835;53.256;6.456;2023-02-11T15:05:24;8.80;99.90
51765;DHT22;37835;53.256;6.456;2023-02-11T15:07:53;8.80;99.90
51765;DHT22;37835;53.256;6.456;2023-02-11T15:10:30;8.80;99.90
51765;DHT22;37835;53.256;6.456;2023-02-11T15:12:57;8.80;99.90
51765;DHT22;37835;53.256;6.456;2023-02-11T15:15:24;8.80;99.90
51765;DHT22;37835;53.256;6.456;2023-02-11T15:17:51;8.80;99.90
51765;DHT22;37835;53.256;6.456;2023-02-11T15:20:26;8.80;99.90
51765;DHT22;37835;53.256;6.456;2023-02-11T15:22:56;8.80;99.90
51765;DHT22;37835;53.256;6.456;2023-02-11T15:25:23;8.80;99.90
51765;DHT22;37835;53.256;6.456;2023-02-11T15:27:51;8.80;99.90
51765;DHT22;37835;53.256;6.456;2023-02-11T15:32:45;8.80;99.90
51765;DHT22;37835;53.256;6.456;2023-02-11T15:35:11;8.80;99.90
51765;DHT22;37835;53.256;6.456;2023-02-11T15:37:38;8.70;99.90
51765;DHT22;37835;53.256;6.456;2023-02-11T15:40:13;8.70;99.90
51765;DHT22;37835;53.256;6.456;2023-02-11T15:42:39;8.70;99.90
51765;DHT22;37835;53.256;6.456;2023-02-11T15:47:50;8.70;99.90
51765;DHT22;37835;53.256;6.456;2023-02-11T15:50:29;8.70;99.90
51765;DHT22;37835;53.256;6.456;2023-02-11T15:52:58;8.70;99.90
51765;DHT22;37835;53.256;6.456;2023-02-11T15:55:25;8.60;99.90
51765;DHT22;37835;53.256;6.456;2023-02-11T15:57:57;8.60;99.90
51765;DHT22;37835;53.256;6.456;2023-02-11T16:00:44;8.60;99.90
51765;DHT22;37835;53.256;6.456;2023-02-11T16:03:23;8.60;99.90
51765;DHT22;37835;53.256;6.456;2023-02-11T16:05:49;8.50;99.90
51765;DHT22;37835;53.256;6.456;2023-02-11T16:08:25;8.50;99.90
51765;DHT22;37835;53.256;6.456;2023-02-11T16:11:02;8.50;99.90
51765;DHT22;37835;53.256;6.456;2023-02-11T16:13:43;8.50;99.90
51765;DHT22;37835;53.256;6.456;2023-02-11T16:16:22;8.50;99.90
51765;DHT22;37835;53.256;6.456;2023-02-11T16:18:53;8.40;99.90
51765;DHT22;37835;53.256;6.456;2023-02-11T16:21:26;8.40;99.90
51765;DHT22;37835;53.256;6.456;2023-02-11T16:23:55;8.40;99.90
51765;DHT22;37835;53.256;6.456;2023-02-11T16:26:35;8.40;99.90
51765;DHT22;37835;53.256;6.456;2023-02-11T16:29:03;8.40;99.90
51765;DHT22;37835;53.256;6.456;2023-02-11T16:31:39;8.40;99.90
51765;DHT22;37835;53.256;6.456;2023-02-11T16:34:22;7.50;99.90
51765;DHT22;37835;53.256;6.456;2023-02-11T16:36:49;8.30;99.90
51765;DHT22;37835;53.256;6.456;2023-02-11T16:39:16;8.30;99.90
51765;DHT22;37835;53.256;6.456;2023-02-11T16:41:42;8.30;99.90
51765;DHT22;37835;53.256;6.456;2023-02-11T16:44:08;8.30;99.90
51765;DHT22;37835;53.256;6.456;2023-02-11T16:46:35;8.30;99.90
51765;DHT22;37835;53.256;6.456;2023-02-11T16:49:10;8.30;99.90
51765;DHT22;37835;53.256;6.456;2023-02-11T16:51:38;8.30;99.90
51765;DHT22;37835;53.256;6.456;2023-02-11T16:54:04;8.30;99.90
51765;DHT22;37835;53.256;6.456;2023-02-11T16:56:30;8.20;99.90
51765;DHT22;37835;53.256;6.456;2023-02-11T16:58:55;7.50;99.90
51765;DHT22;37835;53.256;6.456;2023-02-11T17:01:21;8.20;99.90
51765;DHT22;37835;53.256;6.456;2023-02-11T17:03:47;8.20;99.90
51765;DHT22;37835;53.256;6.456;2023-02-11T17:06:13;8.20;99.90
51765;DHT22;37835;53.256;6.456;2023-02-11T17:08:39;8.10;99.90
51765;DHT22;37835;53.256;6.456;2023-02-11T17:11:04;8.20;99.90
51765;DHT22;37835;53.256;6.456;2023-02-11T17:13:30;8.10;99.90
51765;DHT22;37835;53.256;6.456;2023-02-11T17:15:56;8.10;99.90
51765;DHT22;37835;53.256;6.456;2023-02-11T17:18:22;8.10;99.90
51765;DHT22;37835;53.256;6.456;2023-02-11T17:20:47;8.10;99.90
51765;DHT22;37835;53.256;6.456;2023-02-11T17:23:13;8.00;99.90
51765;DHT22;37835;53.256;6.456;2023-02-11T17:25:39;8.00;99.90
51765;DHT22;37835;53.256;6.456;2023-02-11T17:28:06;8.00;99.90
51765;DHT22;37835;53.256;6.456;2023-02-11T17:30:33;8.00;99.90
51765;DHT22;37835;53.256;6.456;2023-02-11T17:32:58;8.00;99.90
51765;DHT22;37835;53.256;6.456;2023-02-11T17:35:24;8.00;99.90
51765;DHT22;37835;53.256;6.456;2023-02-11T17:37:50;8.00;99.90
51765;DHT22;37835;53.256;6.456;2023-02-11T17:40:15;8.00;99.90
51765;DHT22;37835;53.256;6.456;2023-02-11T17:42:41;8.00;99.90
51765;DHT22;37835;53.256;6.456;2023-02-11T17:45:07;7.90;99.90
51765;DHT22;37835;53.256;6.456;2023-02-11T17:47:33;7.90;99.90
51765;DHT22;37835;53.256;6.456;2023-02-11T17:49:59;7.90;99.90
51765;DHT22;37835;53.256;6.456;2023-02-11T17:52:24;7.90;99.90
51765;DHT22;37835;53.256;6.456;2023-02-11T17:54:52;7.90;99.90
51765;DHT22;37835;53.256;6.456;2023-02-11T17:57:18;7.90;99.90
51765;DHT22;37835;53.256;6.456;2023-02-11T17:59:44;7.80;99.90